Date,TemperatureHighF,TemperatureAvgF,TemperatureLowF,DewpointHighF,DewpointAvgF,DewpointLowF,HumidityHigh,HumidityAvg,HumidityLow,PressureMaxIn,PressureMinIn,WindSpeedMaxMPH,WindSpeedAvgMPH,GustSpeedMaxMPH,PrecipitationSumIn
2013-1-1,16,5,-3,5,0,-7,91,78,60,0.00,40.00,9,3,13,0.00
2013-1-2,30,17,1,29,14,-1,99,88,71,0.00,40.00,9,4,14,0.00
2013-1-3,30,18,5,30,15,4,99,87,75,0.00,40.00,15,8,23,0.16
2013-1-4,36,21,8,25,17,8,99,88,59,0.00,40.00,12,6,19,0.00
2013-1-5,38,27,14,36,25,14,99,93,76,0.00,40.00,16,7,26,0.00
2013-1-6,27,20,13,22,16,9,99,85,71,0.00,40.00,16,6,25,0.00
2013-1-7,44,31,19,31,25,18,99,81,57,0.00,40.00,12,5,18,0.00
2013-1-8,44,33,21,35,30,21,99,88,68,0.00,40.00,14,5,17,0.00
2013-1-9,42,36,26,34,32,26,99,88,69,0.00,40.00,12,5,22,0.00
2013-1-10,40,34,28,37,32,28,99,92,64,0.00,40.00,13,5,19,0.59
2013-1-11,51,43,34,49,43,34,99,98,86,0.00,40.00,20,6,25,0.20
2013-1-12,51,26,16,47,19,7,99,75,66,0.00,40.00,20,12,36,0.00
2013-1-13,18,13,9,10,6,3,81,73,66,0.00,40.00,16,9,24,0.00
2013-1-14,30,17,6,15,10,5,96,74,43,0.00,40.00,9,3,13,0.00
2013-1-15,34,22,13,19,14,10,88,71,45,0.00,40.00,10,4,15,0.00
2013-1-16,47,32,17,37,26,13,99,77,62,0.00,40.00,17,8,24,0.00
2013-1-17,36,25,15,30,19,10,99,78,46,0.00,40.00,16,5,21,0.00
2013-1-18,55,40,22,36,31,20,95,72,46,0.00,40.00,22,9,35,0.00
2013-1-19,52,40,18,36,31,7,89,71,49,0.00,40.00,26,12,38,0.00
2013-1-20,18,12,6,11,6,2,91,77,61,0.00,40.00,17,8,26,0.29
2013-1-21,6,3,-3,2,-5,-13,84,68,55,0.00,40.00,19,10,32,0.00
2013-1-22,15,7,-3,7,-1,-6,86,69,54,0.00,40.00,9,3,12,0.00
2013-1-23,27,16,6,18,9,-4,86,70,60,0.00,40.00,21,11,34,0.00
2013-1-24,21,11,3,8,-2,-7,67,56,45,0.00,40.00,17,9,22,0.00
2013-1-25,36,24,12,25,14,4,93,66,55,0.00,40.00,19,10,27,0.00
2013-1-26,33,20,7,17,9,2,84,63,41,0.00,40.00,11,5,16,0.00
2013-1-27,37,32,28,37,30,17,99,89,59,0.00,40.00,8,4,14,1.52
2013-1-28,43,37,33,42,36,33,99,99,99,0.00,40.00,14,4,21,1.40
2013-1-29,56,39,33,56,39,33,99,99,99,0.00,40.00,18,8,24,0.38
2013-1-30,34,24,16,34,22,11,99,92,77,0.00,40.00,26,16,37,5.05
2013-1-31,16,5,-1,11,-3,-8,82,70,67,0.00,40.00,21,14,30,0.00
2013-2-1,24,5,-8,18,-2,-12,87,72,60,0.00,40.00,13,7,18,0.00
2013-2-2,27,20,15,22,15,7,99,82,60,0.00,40.00,16,8,22,0.01
2013-2-3,33,24,17,31,18,13,99,76,55,0.00,40.00,21,9,35,0.02
2013-2-4,26,22,14,25,20,14,99,91,78,0.00,40.00,20,7,24,0.00
2013-2-5,40,30,17,36,28,17,99,92,76,0.00,40.00,16,6,23,0.00
2013-2-6,44,33,23,38,31,22,99,92,77,0.00,40.00,10,3,14,0.00
2013-2-7,39,34,29,37,33,29,99,98,91,0.00,40.00,19,9,26,1.71
2013-2-8,30,28,26,29,27,26,99,97,89,0.00,40.00,16,7,22,0.00
2013-2-9,35,31,27,35,31,27,99,99,98,0.00,40.00,11,8,22,0.10
2013-2-10,48,37,33,47,36,25,99,94,75,0.00,40.00,29,12,40,0.47
2013-2-11,33,30,27,26,24,22,85,77,72,0.00,40.00,29,17,39,0.34
2013-2-12,44,33,22,30,26,22,99,78,49,0.00,40.00,14,6,19,0.00
2013-2-13,50,36,25,34,30,25,99,80,49,0.00,40.00,12,5,17,0.00
2013-2-14,43,36,25,34,30,17,93,80,63,0.00,40.00,19,12,33,0.08
2013-2-15,27,22,17,17,14,7,84,69,52,0.00,40.00,19,9,27,0.00
2013-2-16,35,22,11,21,15,10,99,76,48,0.00,40.00,7,3,14,0.00
2013-2-17,44,31,18,28,23,17,97,76,50,0.00,40.00,12,6,21,0.00
2013-2-18,44,31,17,36,26,9,99,81,68,0.00,40.00,24,10,42,0.11
2013-2-19,22,15,6,11,5,-1,80,64,50,0.00,40.00,26,15,37,0.00
2013-2-20,24,14,1,14,3,-4,80,63,45,0.00,40.00,14,5,18,0.00
2013-2-21,26,22,17,25,17,12,99,84,64,0.00,40.00,21,12,30,0.14
2013-2-22,29,25,22,26,22,19,99,91,79,0.00,40.00,17,8,26,0.31
2013-2-23,33,23,10,21,17,10,99,80,56,0.00,40.00,11,5,15,0.00
2013-2-24,38,26,10,31,22,10,99,85,62,0.00,40.00,5,2,8,0.00
2013-2-25,42,34,27,36,31,27,99,90,67,0.00,40.00,11,4,14,0.00
2013-2-26,33,31,29,32,30,29,99,98,90,0.00,40.00,25,16,33,7.65
2013-2-27,30,28,25,30,28,24,99,99,96,0.00,40.00,16,13,26,2.71
2013-2-28,32,27,22,28,26,22,99,94,79,0.00,40.00,17,11,22,0.17
2013-3-1,28,26,24,27,24,18,99,91,75,0.00,40.00,14,10,18,1.18
2013-3-2,29,21,14,20,17,13,99,86,66,0.00,40.00,11,5,17,0.00
2013-3-3,32,27,21,27,23,20,99,84,67,0.00,40.00,14,7,22,0.06
2013-3-4,35,31,26,33,31,26,99,97,90,0.00,40.00,18,11,26,0.78
2013-3-5,32,29,27,31,27,23,99,91,72,0.00,40.00,21,11,29,3.62
2013-3-6,29,24,13,26,21,13,99,90,76,0.00,40.00,16,8,23,0.00
2013-3-7,31,21,8,28,20,8,99,95,84,0.00,40.00,14,5,17,0.00
2013-3-8,42,33,25,37,31,25,99,92,76,0.00,40.00,14,6,26,1.64
2013-3-9,41,38,36,41,38,36,99,99,99,0.00,40.00,10,6,17,6.28
2013-3-10,38,35,33,38,35,33,99,99,99,0.00,40.00,19,11,26,6.08
2013-3-11,33,28,25,33,28,23,99,96,87,0.00,40.00,17,12,26,0.98
2013-3-12,34,27,22,31,24,20,99,87,68,0.00,40.00,22,12,32,1.08
2013-3-13,34,25,18,26,20,16,94,80,49,0.00,40.00,14,7,23,0.00
2013-3-14,51,37,27,38,31,23,99,81,55,0.00,40.00,11,5,14,0.40
2013-3-15,53,39,28,46,37,28,99,95,77,0.00,40.00,12,4,16,0.00
2013-3-16,36,33,28,36,30,23,99,89,73,0.00,40.00,24,13,31,0.00
2013-3-17,38,30,22,30,25,19,91,80,67,0.00,40.00,19,12,26,0.00
2013-3-18,34,29,21,34,24,15,99,84,63,0.00,40.00,24,12,39,0.93
2013-3-19,36,25,16,24,14,8,85,64,45,0.00,40.00,19,10,27,0.00
2013-3-20,27,21,15,18,10,4,81,63,46,0.00,40.00,22,13,31,0.02
2013-3-21,35,23,12,20,13,7,87,66,42,0.00,40.00,11,5,16,0.00
2013-3-22,40,29,18,27,20,17,98,73,44,0.00,40.00,9,4,12,0.00
2013-3-23,40,32,26,32,26,20,99,80,46,0.00,40.00,12,6,16,1.64
2013-3-24,31,29,28,31,29,28,99,99,99,0.00,40.00,19,13,24,3.76
2013-3-25,35,30,27,28,26,23,99,84,63,0.00,40.00,21,13,27,0.00
2013-3-26,41,30,23,28,25,21,96,79,53,0.00,40.00,12,6,19,0.00
2013-3-27,46,34,23,33,28,23,99,80,48,0.00,40.00,8,2,12,0.84
2013-3-28,56,40,28,38,33,28,99,77,47,0.00,40.00,12,4,16,2.10
2013-3-29,62,46,29,43,36,29,99,72,42,0.00,40.00,9,4,16,0.92
2013-3-30,54,46,39,53,43,-100,99,93,64,0.00,40.00,10,3,15,3.85
2013-3-31,52,40,29,45,33,23,99,79,40,0.00,40.00,21,9,31,0.65
2013-4-1,38,30,23,25,20,17,94,67,47,0.00,40.00,19,10,24,0.00
2013-4-2,45,32,18,31,23,18,99,72,40,0.00,40.00,14,5,22,0.00
2013-4-3,51,36,23,26,23,20,99,65,33,0.00,40.00,11,3,16,0.00
2013-4-4,64,45,28,43,31,21,82,58,34,0.00,40.00,12,-8,22,0.00
2013-4-5,60,47,32,35,32,27,94,60,32,0.00,40.00,11,7,19,0.00
2013-4-6,68,57,47,53,43,35,90,61,52,0.00,40.00,22,10,30,0.00
2013-4-7,68,49,34,46,42,34,99,78,44,0.00,40.00,15,6,21,0.17
2013-4-8,75,61,44,59,54,44,99,79,48,0.00,40.00,13,4,20,0.33
2013-4-9,66,53,43,66,53,43,99,99,91,0.00,40.00,21,11,26,2.64
2013-4-10,43,40,38,43,40,38,99,99,99,0.00,40.00,27,12,37,3.02
2013-4-11,44,39,36,44,39,36,99,99,92,0.00,40.00,14,-1,24,1.06
2013-4-12,40,37,34,37,33,26,99,86,69,0.00,40.00,17,11,26,0.00
2013-4-13,53,41,30,39,31,25,89,68,49,0.00,40.00,15,8,24,0.01
2013-4-14,69,53,42,60,49,39,99,86,57,0.00,40.00,24,11,34,1.18
2013-4-15,52,43,38,52,37,29,99,80,53,0.00,40.00,20,7,27,0.25
2013-4-16,51,42,29,38,34,28,99,74,51,0.00,40.00,16,8,22,0.00
2013-4-17,50,44,40,50,42,37,99,94,69,0.00,40.00,26,11,35,5.40
2013-4-18,47,39,35,47,39,33,99,97,89,0.00,40.00,26,12,35,3.62
2013-4-19,42,36,31,33,28,26,93,74,54,0.00,40.00,27,16,35,0.07
2013-4-20,49,38,27,32,26,21,95,66,35,0.00,40.00,12,5,17,0.00
2013-4-21,69,52,40,48,39,30,83,62,41,0.00,40.00,26,11,34,0.06
2013-4-22,69,58,39,53,48,39,99,73,47,0.00,40.00,17,9,29,0.56
2013-4-23,42,37,33,39,33,27,99,85,60,0.00,40.00,21,15,29,0.23
2013-4-24,55,42,28,41,29,24,94,64,31,0.00,40.00,17,8,26,0.40
2013-4-25,62,48,32,39,34,27,99,62,34,0.00,40.00,16,7,24,0.00
2013-4-26,68,57,47,52,46,37,99,67,50,0.00,40.00,26,11,35,0.00
2013-4-27,68,54,40,53,47,40,99,80,49,0.00,40.00,11,4,17,0.00
2013-4-28,78,61,40,57,50,40,99,70,41,0.00,40.00,16,6,20,0.00
2013-4-29,83,67,52,65,59,52,99,76,49,0.00,40.00,12,5,19,0.11
2013-4-30,86,75,62,66,58,47,86,57,37,0.00,40.00,27,6,36,0.00
2013-5-1,62,52,41,50,44,37,85,72,59,0.00,40.00,28,19,38,0.00
2013-5-2,42,35,33,39,35,33,99,98,82,0.00,40.00,29,19,38,11.82
2013-5-3,35,33,32,35,33,32,99,99,99,0.00,40.00,21,17,27,3.53
2013-5-4,53,43,34,53,43,34,99,99,99,0.00,40.00,17,8,24,4.37
2013-5-5,65,51,43,61,51,43,99,98,87,0.00,40.00,14,7,20,0.00
2013-5-6,75,59,45,58,52,45,99,83,44,0.00,40.00,9,4,14,0.00
2013-5-7,79,64,47,59,52,47,99,70,34,0.00,40.00,8,2,12,0.00
2013-5-8,76,61,49,62,57,49,99,88,49,0.00,40.00,11,4,18,1.50
2013-5-9,70,61,55,64,60,54,99,95,74,0.00,40.00,16,6,21,1.55
2013-5-10,66,55,50,56,50,-100,99,89,60,0.00,40.00,17,10,23,0.14
2013-5-11,57,52,44,51,34,-100,99,56,27,0.00,40.00,31,14,39,0.00
2013-5-12,61,49,36,36,28,25,82,47,25,0.00,40.00,14,6,22,0.00
2013-5-13,77,59,36,52,44,35,99,63,34,0.00,40.00,21,7,29,0.23
2013-5-14,97,77,56,71,60,52,99,60,29,0.00,40.00,25,10,35,0.00
2013-5-15,84,73,59,57,48,41,73,43,23,0.00,40.00,18,7,25,0.00
2013-5-16,85,67,58,70,42,-100,87,71,52,0.00,40.00,14,4,21,0.00
2013-5-17,83,72,61,69,60,-100,99,78,53,0.00,40.00,13,5,19,0.00
2013-5-18,87,74,60,69,65,60,99,76,48,0.00,40.00,14,5,21,0.00
2013-5-19,89,75,62,73,67,62,99,80,45,0.00,40.00,22,9,36,1.22
2013-5-20,81,69,60,70,64,60,99,87,60,0.00,40.00,22,11,34,1.03
2013-5-21,71,63,55,61,57,51,99,81,59,0.00,40.00,14,7,22,0.00
2013-5-22,64,58,54,62,57,53,99,96,86,0.00,40.00,12,7,22,0.00
2013-5-23,70,60,53,56,51,45,99,76,40,0.00,40.00,17,10,26,0.39
2013-5-24,72,60,46,57,50,44,95,70,46,0.00,40.00,15,6,21,0.00
2013-5-25,60,54,51,55,52,49,99,95,67,0.00,40.00,17,9,27,2.98
2013-5-26,59,55,51,59,55,51,99,99,99,0.00,40.00,18,8,27,0.42
2013-5-27,75,65,58,70,64,58,99,95,75,0.00,40.00,22,5,41,1.00
2013-5-28,80,71,63,76,68,63,99,92,62,0.00,40.00,13,5,27,0.67
2013-5-29,82,70,62,77,69,62,99,95,81,0.00,40.00,17,7,24,3.71
2013-5-30,74,69,63,72,67,62,99,91,83,0.00,40.00,20,12,29,0.11
2013-5-31,76,69,63,71,66,62,99,91,77,0.00,40.00,20,11,29,0.00
2013-6-1,66,63,58,66,59,53,99,86,72,0.00,40.00,10,6,16,0.00
2013-6-7,71,65,55,57,55,53,99,73,56,0.00,40.00,7,3,14,0.00
2013-6-8,75,63,50,65,58,50,99,85,59,0.00,40.00,11,4,21,0.72
2013-6-9,76,67,62,71,64,59,99,91,71,0.00,40.00,16,7,23,0.71
2013-6-10,80,66,57,69,64,57,99,91,65,0.00,40.00,7,2,12,0.00
2013-6-11,87,75,62,78,71,62,99,87,65,0.00,40.00,10,3,14,0.30
2013-6-12,89,78,66,80,73,62,99,86,63,0.00,40.00,17,8,31,0.40
2013-6-13,84,72,63,66,62,56,92,70,40,0.00,40.00,22,7,34,0.00
2013-6-14,79,68,62,69,65,61,99,89,67,0.00,40.00,21,6,35,1.03
2013-6-15,83,71,64,77,70,64,99,95,76,0.00,40.00,19,6,31,0.98
2013-6-16,87,75,65,73,64,54,99,74,33,0.00,40.00,9,4,13,0.17
2013-6-17,89,76,59,68,61,55,99,65,32,0.00,40.00,12,4,18,0.00
2013-6-18,83,73,60,67,62,55,99,68,45,0.00,40.00,10,4,16,0.00
2013-6-19,85,74,63,71,66,62,99,76,47,0.00,40.00,12,4,20,0.00
2013-6-20,90,77,66,74,68,64,95,75,53,0.00,40.00,20,5,30,0.00
2013-6-22,92,86,81,79,76,73,80,71,62,0.00,40.00,21,10,28,0.00
2013-6-23,80,75,66,76,72,66,99,90,73,0.00,40.00,16,6,26,2.73
2013-6-24,77,72,67,77,71,67,99,98,86,0.00,40.00,13,4,21,1.11
2013-6-25,89,78,68,80,74,68,99,90,61,0.00,40.00,14,4,23,0.07
2013-6-26,91,81,72,82,75,67,99,83,49,0.00,40.00,17,5,23,0.00
2013-6-27,87,76,64,76,69,63,99,80,52,0.00,40.00,12,5,21,0.14
2013-6-28,85,77,68,67,62,56,97,60,37,0.00,40.00,22,11,34,0.00
2013-6-29,75,70,65,66,62,58,95,77,64,0.00,40.00,24,11,32,0.00
2013-6-30,79,68,57,61,58,53,99,71,42,0.00,40.00,16,8,27,0.06
2013-7-1,81,70,52,62,57,52,99,67,37,0.00,40.00,16,6,22,0.00
2013-7-2,84,68,55,67,60,54,99,81,40,0.00,40.00,15,3,30,0.00
2013-7-3,81,68,57,65,62,57,99,80,49,0.00,40.00,8,3,13,0.09
2013-7-4,85,74,59,68,63,59,99,71,46,0.00,40.00,11,4,17,0.00
2013-7-5,87,77,61,70,66,60,99,69,50,0.00,40.00,14,6,25,0.00
2013-7-6,91,76,65,74,67,63,94,75,52,0.00,40.00,11,4,21,0.00
2013-7-7,92,80,67,77,72,67,99,77,51,0.00,40.00,17,7,23,0.21
2013-7-8,90,80,72,79,76,72,99,87,70,0.00,40.00,12,4,16,0.00
2013-7-9,92,81,73,83,78,73,99,90,69,0.00,40.00,12,4,18,0.17
2013-7-10,83,75,63,78,62,-100,99,68,41,0.00,40.00,14,6,21,0.00
2013-7-11,83,72,56,65,61,56,99,72,46,0.00,40.00,7,3,14,0.00
2013-7-12,87,74,61,69,64,60,99,73,52,0.00,40.00,11,4,21,0.00
2013-7-13,78,72,64,69,64,58,88,76,67,0.00,40.00,9,3,16,0.00
2013-7-14,87,75,62,71,67,62,99,77,53,0.00,40.00,9,3,16,0.00
2013-7-15,89,76,63,77,71,63,99,86,60,0.00,40.00,8,3,16,0.00
2013-7-16,94,83,70,78,76,70,99,80,56,0.00,40.00,9,4,15,0.00
2013-7-17,95,84,70,79,75,70,99,75,48,0.00,40.00,9,3,12,0.00
2013-7-18,95,83,71,77,74,71,99,76,48,0.00,40.00,15,6,22,0.00
2013-7-19,94,83,72,77,73,71,96,74,51,0.00,40.00,12,5,17,0.00
2013-7-20,89,82,60,70,65,60,99,60,44,0.00,40.00,7,2,10,0.00
2013-7-21,81,71,63,75,70,63,99,93,77,0.00,40.00,10,3,17,0.43
2013-7-22,93,76,65,80,71,64,99,86,58,0.00,40.00,19,4,37,0.52
2013-7-23,78,69,62,69,64,60,99,84,58,0.00,40.00,13,4,19,0.00
2013-7-24,80,69,57,64,61,57,99,79,51,0.00,40.00,9,2,12,0.00
2013-7-25,87,72,58,72,66,58,99,81,53,0.00,40.00,15,5,21,0.20
2013-7-26,78,71,62,73,62,55,99,76,50,0.00,40.00,16,7,26,0.47
2013-7-27,70,62,52,58,52,47,99,72,46,0.00,40.00,14,7,24,0.00
2013-7-28,77,64,51,59,53,49,99,69,45,0.00,40.00,14,6,20,0.00
2013-7-29,75,65,47,65,59,47,99,83,57,0.00,40.00,7,2,14,0.00
2013-7-30,71,67,63,71,66,62,99,98,86,0.00,40.00,6,3,11,0.41
2013-7-31,84,72,63,72,67,63,99,85,59,0.00,40.00,8,3,15,0.00
2013-8-1,87,71,57,70,65,57,99,84,51,0.00,40.00,9,3,13,0.00
2013-8-2,84,72,64,71,66,59,99,83,61,0.00,40.00,15,4,21,0.00
2013-8-3,80,72,59,65,60,56,99,70,44,0.00,40.00,7,3,12,0.00
2013-8-4,83,70,51,63,60,51,99,73,46,0.00,40.00,9,-8,15,0.00
2013-8-5,85,74,63,76,70,62,99,89,67,0.00,40.00,12,4,16,0.00
2013-8-6,91,76,63,77,71,63,99,86,58,0.00,40.00,10,3,16,0.29
2013-8-7,81,73,64,73,68,64,99,86,62,0.00,40.00,13,5,24,0.79
2013-8-8,82,69,57,68,63,57,99,83,51,0.00,40.00,6,2,9,0.00
2013-8-9,82,71,61,71,65,61,99,82,52,0.00,40.00,11,3,17,0.00
2013-8-10,85,70,53,68,61,53,99,76,45,0.00,40.00,7,2,12,0.00
2013-8-11,87,73,60,70,66,60,99,80,52,0.00,40.00,11,5,16,0.35
2013-9-1,83,75,64,72,66,59,99,76,44,0.00,40.00,16,7,24,0.59
2013-9-2,79,67,56,61,58,52,99,77,40,0.00,40.00,10,5,16,0.00
2013-9-3,82,63,45,61,54,45,99,76,38,0.00,40.00,4,2,9,0.00
2013-9-4,91,75,55,70,62,55,99,67,38,0.00,40.00,7,3,11,0.00
2013-9-5,91,78,64,72,68,64,99,73,46,0.00,40.00,6,2,10,0.41
2013-9-6,93,78,63,70,65,61,99,68,38,0.00,40.00,12,5,19,0.53
2013-9-7,97,80,69,76,66,-100,93,69,43,0.00,40.00,9,-20,14,0.28
2013-9-8,88,79,71,76,74,70,99,85,66,0.00,40.00,11,6,17,0.17